sensor_id;sensor_type;location;lat;lon;timestamp;pressure;altitude;pressure_sealevel;temperature;humidity
46768;BME280;69007;48.978;18.066;2023-07-08T00:02:10;98201.06;;;17.37;81.06
46768;BME280;69007;48.978;18.066;2023-07-08T00:04:37;98201.06;;;17.37;80.97
46768;BME280;69007;48.978;18.066;2023-07-08T00:07:02;98192.28;;;17.35;80.91
46768;BME280;69007;48.978;18.066;2023-07-08T00:09:28;98195.63;;;17.32;81.13
46768;BME280;69007;48.978;18.066;2023-07-08T00:11:53;98179.50;;;17.25;81.38
46768;BME280;69007;48.978;18.066;2023-07-08T00:14:19;98185.59;;;17.41;80.88
46768;BME280;69007;48.978;18.066;2023-07-08T00:16:44;98169.69;;;17.38;80.76
46768;BME280;69007;48.978;18.066;2023-07-08T00:19:10;98194.00;;;17.50;80.40
46768;BME280;69007;48.978;18.066;2023-07-08T00:21:36;98173.56;;;17.37;81.13
46768;BME280;69007;48.978;18.066;2023-07-08T00:24:01;98180.03;;;17.27;81.39
46768;BME280;69007;48.978;18.066;2023-07-08T00:26:29;98180.78;;;17.33;81.73
46768;BME280;69007;48.978;18.066;2023-07-08T00:28:55;98166.88;;;17.24;82.56
46768;BME280;69007;48.978;18.066;2023-07-08T00:31:25;98184.03;;;17.16;83.01
46768;BME280;69007;48.978;18.066;2023-07-08T00:33:51;98190.84;;;17.19;82.98
46768;BME280;69007;48.978;18.066;2023-07-08T00:36:20;98180.00;;;17.08;83.50
46768;BME280;69007;48.978;18.066;2023-07-08T00:38:46;98198.22;;;17.04;84.29
46768;BME280;69007;48.978;18.066;2023-07-08T00:41:44;98189.72;;;17.01;87.12
46768;BME280;69007;48.978;18.066;2023-07-08T00:44:11;98182.75;;;17.08;83.62
46768;BME280;69007;48.978;18.066;2023-07-08T00:52:21;98187.44;;;17.08;86.06
46768;BME280;69007;48.978;18.066;2023-07-08T00:54:56;98184.13;;;17.06;85.91
46768;BME280;69007;48.978;18.066;2023-07-08T00:57:23;98183.31;;;16.86;87.75
46768;BME280;69007;48.978;18.066;2023-07-08T00:59:54;98185.44;;;16.89;84.97
46768;BME280;69007;48.978;18.066;2023-07-08T01:02:24;98195.44;;;16.80;85.29
46768;BME280;69007;48.978;18.066;2023-07-08T01:04:52;98184.16;;;16.82;85.06
46768;BME280;69007;48.978;18.066;2023-07-08T01:07:20;98178.34;;;16.83;85.01
46768;BME280;69007;48.978;18.066;2023-07-08T01:09:59;98172.53;;;16.90;86.12
46768;BME280;69007;48.978;18.066;2023-07-08T01:12:31;98163.78;;;16.88;84.80
46768;BME280;69007;48.978;18.066;2023-07-08T01:15:00;98159.91;;;16.89;83.94
46768;BME280;69007;48.978;18.066;2023-07-08T01:17:28;98184.56;;;16.94;83.75
46768;BME280;69007;48.978;18.066;2023-07-08T01:19:58;98179.66;;;16.91;84.10
46768;BME280;69007;48.978;18.066;2023-07-08T01:22:24;98161.09;;;16.77;84.76
46768;BME280;69007;48.978;18.066;2023-07-08T01:24:50;98180.56;;;16.86;85.13
46768;BME280;69007;48.978;18.066;2023-07-08T01:27:18;98162.75;;;16.79;85.88
46768;BME280;69007;48.978;18.066;2023-07-08T01:29:45;98174.25;;;16.81;85.75
46768;BME280;69007;48.978;18.066;2023-07-08T01:32:13;98170.19;;;16.78;85.95
46768;BME280;69007;48.978;18.066;2023-07-08T01:34:44;98171.78;;;16.79;86.16
46768;BME280;69007;48.978;18.066;2023-07-08T01:38:08;98168.88;;;16.70;86.46
46768;BME280;69007;48.978;18.066;2023-07-08T01:40:25;98160.75;;;16.60;86.80
46768;BME280;69007;48.978;18.066;2023-07-08T01:42:51;98174.22;;;16.62;86.77
46768;BME280;69007;48.978;18.066;2023-07-08T01:45:19;98161.50;;;16.66;86.83
46768;BME280;69007;48.978;18.066;2023-07-08T01:47:50;98151.16;;;16.57;87.34
46768;BME280;69007;48.978;18.066;2023-07-08T01:50:16;98178.88;;;16.61;86.82
46768;BME280;69007;48.978;18.066;2023-07-08T01:52:43;98173.66;;;16.59;86.82
46768;BME280;69007;48.978;18.066;2023-07-08T01:55:09;98174.69;;;16.39;87.81
46768;BME280;69007;48.978;18.066;2023-07-08T01:57:34;98173.66;;;16.35;87.92
46768;BME280;69007;48.978;18.066;2023-07-08T01:59:59;98168.84;;;16.22;88.74
46768;BME280;69007;48.978;18.066;2023-07-08T02:02:25;98183.28;;;16.33;88.26
46768;BME280;69007;48.978;18.066;2023-07-08T02:04:50;98174.75;;;16.34;88.21
46768;BME280;69007;48.978;18.066;2023-07-08T02:07:16;98178.50;;;16.44;88.10
46768;BME280;69007;48.978;18.066;2023-07-08T02:09:43;98172.44;;;16.47;87.57
46768;BME280;69007;48.978;18.066;2023-07-08T02:12:08;98173.66;;;16.35;87.66
46768;BME280;69007;48.978;18.066;2023-07-08T02:14:34;98181.56;;;16.42;87.98
46768;BME280;69007;48.978;18.066;2023-07-08T02:16:59;98164.78;;;16.44;87.75
46768;BME280;69007;48.978;18.066;2023-07-08T02:19:25;98180.19;;;16.39;87.82
46768;BME280;69007;48.978;18.066;2023-07-08T02:21:52;98162.03;;;16.44;88.03
46768;BME280;69007;48.978;18.066;2023-07-08T02:24:18;98155.75;;;16.38;87.47
46768;BME280;69007;48.978;18.066;2023-07-08T02:26:43;98169.41;;;16.48;87.38
46768;BME280;69007;48.978;18.066;2023-07-08T02:29:08;98172.72;;;16.45;87.69
46768;BME280;69007;48.978;18.066;2023-07-08T02:31:34;98177.69;;;16.43;87.74
46768;BME280;69007;48.978;18.066;2023-07-08T02:33:59;98158.22;;;16.39;87.55
46768;BME280;69007;48.978;18.066;2023-07-08T02:36:27;98167.31;;;16.35;87.75
46768;BME280;69007;48.978;18.066;2023-07-08T02:38:52;98175.88;;;16.33;88.33
46768;BME280;69007;48.978;18.066;2023-07-08T02:41:18;98182.75;;;16.31;88.12
46768;BME280;69007;48.978;18.066;2023-07-08T02:43:43;98176.91;;;16.08;89.46
46768;BME280;69007;48.978;18.066;2023-07-08T02:46:09;98178.28;;;16.11;89.80
46768;BME280;69007;48.978;18.066;2023-07-08T02:48:34;98173.06;;;16.09;89.57
46768;BME280;69007;48.978;18.066;2023-07-08T02:51:03;98187.50;;;16.20;89.33
46768;BME280;69007;48.978;18.066;2023-07-08T02:53:29;98169.00;;;16.01;90.14
46768;BME280;69007;48.978;18.066;2023-07-08T02:55:55;98166.41;;;15.86;91.35
46768;BME280;69007;48.978;18.066;2023-07-08T02:58:20;98178.94;;;15.97;91.25
46768;BME280;69007;48.978;18.066;2023-07-08T03:00:54;98167.41;;;16.00;91.40
46768;BME280;69007;48.978;18.066;2023-07-08T03:03:20;98151.00;;;15.90;90.31
46768;BME280;69007;48.978;18.066;2023-07-08T03:06:00;98163.19;;;16.08;92.10
46768;BME280;69007;48.978;18.066;2023-07-08T03:08:26;98168.84;;;16.22;89.70
46768;BME280;69007;48.978;18.066;2023-07-08T03:10:57;98170.97;;;16.30;90.45
46768;BME280;69007;48.978;18.066;2023-07-08T03:13:23;98168.22;;;16.30;89.07
46768;BME280;69007;48.978;18.066;2023-07-08T03:15:50;98186.22;;;16.42;88.62
46768;BME280;69007;48.978;18.066;2023-07-08T03:18:15;98182.34;;;16.43;88.39
46768;BME280;69007;48.978;18.066;2023-07-08T03:20:41;98164.50;;;16.45;88.16
46768;BME280;69007;48.978;18.066;2023-07-08T03:23:09;98184.66;;;16.84;86.69
46768;BME280;69007;48.978;18.066;2023-07-08T03:25:35;98175.00;;;17.10;85.35
46768;BME280;69007;48.978;18.066;2023-07-08T03:28:01;98180.63;;;17.43;84.63
46768;BME280;69007;48.978;18.066;2023-07-08T03:30:27;98179.13;;;17.32;85.18
46768;BME280;69007;48.978;18.066;2023-07-08T03:32:52;98167.31;;;17.31;85.29
46768;BME280;69007;48.978;18.066;2023-07-08T03:35:20;98191.88;;;17.66;84.91
46768;BME280;69007;48.978;18.066;2023-07-08T03:37:47;98183.28;;;17.86;83.58
46768;BME280;69007;48.978;18.066;2023-07-08T03:40:13;98178.00;;;18.09;82.84
46768;BME280;69007;48.978;18.066;2023-07-08T03:42:38;98187.63;;;18.26;81.75
46768;BME280;69007;48.978;18.066;2023-07-08T03:45:04;98169.69;;;18.28;80.92
46768;BME280;69007;48.978;18.066;2023-07-08T03:47:30;98182.06;;;18.58;79.52
46768;BME280;69007;48.978;18.066;2023-07-08T03:49:55;98183.25;;;18.85;77.79
46768;BME280;69007;48.978;18.066;2023-07-08T03:52:21;98177.44;;;19.01;79.08
46768;BME280;69007;48.978;18.066;2023-07-08T03:54:46;98180.97;;;19.15;77.67
46768;BME280;69007;48.978;18.066;2023-07-08T03:57:12;98168.91;;;19.39;76.26
46768;BME280;69007;48.978;18.066;2023-07-08T03:59:37;98161.19;;;19.49;74.95
46768;BME280;69007;48.978;18.066;2023-07-08T04:02:03;98164.00;;;19.58;75.54
46768;BME280;69007;48.978;18.066;2023-07-08T04:04:29;98181.03;;;19.74;75.08
46768;BME280;69007;48.978;18.066;2023-07-08T04:06:54;98168.78;;;19.80;74.36
46768;BME280;69007;48.978;18.066;2023-07-08T04:09:20;98182.94;;;20.01;74.76
46768;BME280;69007;48.978;18.066;2023-07-08T04:11:45;98160.38;;;20.08;73.30
46768;BME280;69007;48.978;18.066;2023-07-08T04:14:11;98161.09;;;20.22;72.05
46768;BME280;69007;48.978;18.066;2023-07-08T04:16:55;98177.81;;;20.49;72.03
46768;BME280;69007;48.978;18.066;2023-07-08T04:19:23;98176.50;;;20.69;71.95
46768;BME280;69007;48.978;18.066;2023-07-08T04:21:49;98178.00;;;20.75;72.34
46768;BME280;69007;48.978;18.066;2023-07-08T04:24:16;98166.28;;;20.78;71.45
46768;BME280;69007;48.978;18.066;2023-07-08T04:26:43;98173.66;;;21.00;71.01
46768;BME280;69007;48.978;18.066;2023-07-08T04:29:17;98183.84;;;21.31;68.63
46768;BME280;69007;48.978;18.066;2023-07-08T04:31:42;98181.00;;;21.53;68.41
46768;BME280;69007;48.978;18.066;2023-07-08T04:34:09;98186.56;;;21.80;68.19
46768;BME280;69007;48.978;18.066;2023-07-08T04:36:34;98186.19;;;21.99;67.23
46768;BME280;69007;48.978;18.066;2023-07-08T04:39:01;98192.72;;;22.03;66.65
46768;BME280;69007;48.978;18.066;2023-07-08T04:41:27;98189.13;;;22.20;64.98
46768;BME280;69007;48.978;18.066;2023-07-08T04:43:53;98175.72;;;22.48;63.35
46768;BME280;69007;48.978;18.066;2023-07-08T04:46:39;98190.03;;;22.97;60.50
46768;BME280;69007;48.978;18.066;2023-07-08T04:49:07;98187.47;;;23.52;60.03
46768;BME280;69007;48.978;18.066;2023-07-08T04:51:35;98179.63;;;23.75;58.57
46768;BME280;69007;48.978;18.066;2023-07-08T04:54:01;98175.75;;;24.09;57.73
46768;BME280;69007;48.978;18.066;2023-07-08T04:56:38;98185.63;;;24.53;55.46
46768;BME280;69007;48.978;18.066;2023-07-08T04:59:05;98190.97;;;25.28;55.04
46768;BME280;69007;48.978;18.066;2023-07-08T05:01:31;98193.97;;;26.01;53.12
46768;BME280;69007;48.978;18.066;2023-07-08T05:03:57;98183.53;;;26.86;50.79
46768;BME280;69007;48.978;18.066;2023-07-08T05:06:22;98193.06;;;28.23;47.62
46768;BME280;69007;48.978;18.066;2023-07-08T05:08:48;98194.16;;;29.27;44.62
46768;BME280;69007;48.978;18.066;2023-07-08T05:11:13;98192.94;;;30.46;42.21
46768;BME280;69007;48.978;18.066;2023-07-08T05:13:38;98195.75;;;31.32;40.64
46768;BME280;69007;48.978;18.066;2023-07-08T05:16:04;98195.94;;;32.45;38.84
46768;BME280;69007;48.978;18.066;2023-07-08T05:18:29;98198.50;;;33.26;36.81
46768;BME280;69007;48.978;18.066;2023-07-08T05:20:55;98200.75;;;34.17;35.67
46768;BME280;69007;48.978;18.066;2023-07-08T05:23:21;98203.91;;;35.00;34.15
46768;BME280;69007;48.978;18.066;2023-07-08T05:25:46;98197.25;;;35.67;33.08
46768;BME280;69007;48.978;18.066;2023-07-08T05:28:12;98207.81;;;36.66;32.21
46768;BME280;69007;48.978;18.066;2023-07-08T05:30:40;98200.78;;;37.52;30.69
46768;BME280;69007;48.978;18.066;2023-07-08T05:33:05;98203.78;;;38.29;29.64
46768;BME280;69007;48.978;18.066;2023-07-08T05:35:30;98192.28;;;38.52;29.31
46768;BME280;69007;48.978;18.066;2023-07-08T05:37:56;98196.19;;;38.95;28.57
46768;BME280;69007;48.978;18.066;2023-07-08T05:40:21;98212.75;;;39.33;28.18
46768;BME280;69007;48.978;18.066;2023-07-08T05:42:46;98214.41;;;39.80;27.07
46768;BME280;69007;48.978;18.066;2023-07-08T05:45:12;98214.84;;;39.95;27.30
46768;BME280;69007;48.978;18.066;2023-07-08T05:47:37;98206.72;;;40.91;26.65
46768;BME280;69007;48.978;18.066;2023-07-08T05:50:03;98217.38;;;41.51;25.09
46768;BME280;69007;48.978;18.066;2023-07-08T05:52:29;98203.63;;;41.71;25.18
46768;BME280;69007;48.978;18.066;2023-07-08T05:54:54;98208.94;;;42.04;23.85
46768;BME280;69007;48.978;18.066;2023-07-08T05:57:20;98215.25;;;40.78;24.54
46768;BME280;69007;48.978;18.066;2023-07-08T05:59:46;98222.41;;;40.44;24.82
46768;BME280;69007;48.978;18.066;2023-07-08T06:02:12;98217.66;;;40.79;24.59
46768;BME280;69007;48.978;18.066;2023-07-08T06:04:38;98219.03;;;41.61;24.24
46768;BME280;69007;48.978;18.066;2023-07-08T06:07:03;98209.91;;;42.23;23.29
46768;BME280;69007;48.978;18.066;2023-07-08T06:09:29;98206.97;;;42.36;23.23
46768;BME280;69007;48.978;18.066;2023-07-08T06:11:54;98221.44;;;41.97;23.42
46768;BME280;69007;48.978;18.066;2023-07-08T06:14:20;98224.38;;;42.07;23.84
46768;BME280;69007;48.978;18.066;2023-07-08T06:16:45;98215.28;;;42.21;23.41
46768;BME280;69007;48.978;18.066;2023-07-08T06:19:11;98213.97;;;42.66;23.03
46768;BME280;69007;48.978;18.066;2023-07-08T06:21:37;98210.59;;;42.59;22.84
46768;BME280;69007;48.978;18.066;2023-07-08T06:24:03;98210.53;;;42.05;23.54
46768;BME280;69007;48.978;18.066;2023-07-08T06:26:29;98213.84;;;40.44;24.77
46768;BME280;69007;48.978;18.066;2023-07-08T06:28:54;98213.25;;;38.79;25.86
46768;BME280;69007;48.978;18.066;2023-07-08T06:31:19;98214.31;;;36.66;28.08
46768;BME280;69007;48.978;18.066;2023-07-08T06:33:45;98208.06;;;34.85;30.30
46768;BME280;69007;48.978;18.066;2023-07-08T06:36:10;98206.94;;;33.11;32.08
46768;BME280;69007;48.978;18.066;2023-07-08T06:38:35;98208.00;;;31.61;34.05
46768;BME280;69007;48.978;18.066;2023-07-08T06:41:01;98183.91;;;30.67;35.43
46768;BME280;69007;48.978;18.066;2023-07-08T06:43:26;98200.63;;;29.85;36.64
46768;BME280;69007;48.978;18.066;2023-07-08T06:45:52;98188.16;;;29.29;38.24
46768;BME280;69007;48.978;18.066;2023-07-08T06:48:17;98190.44;;;28.34;40.14
46768;BME280;69007;48.978;18.066;2023-07-08T06:50:46;98192.72;;;27.89;40.93
46768;BME280;69007;48.978;18.066;2023-07-08T06:53:11;98183.06;;;27.67;41.96
46768;BME280;69007;48.978;18.066;2023-07-08T06:55:36;98184.84;;;27.75;41.99
46768;BME280;69007;48.978;18.066;2023-07-08T06:58:02;98207.19;;;27.40;43.24
46768;BME280;69007;48.978;18.066;2023-07-08T07:00:27;98196.25;;;26.99;43.64
46768;BME280;69007;48.978;18.066;2023-07-08T07:02:53;98183.28;;;26.91;44.64
46768;BME280;69007;48.978;18.066;2023-07-08T07:05:18;98189.38;;;26.81;44.22
46768;BME280;69007;48.978;18.066;2023-07-08T07:07:44;98200.22;;;26.54;45.68
46768;BME280;69007;48.978;18.066;2023-07-08T07:10:09;98182.72;;;26.41;46.82
46768;BME280;69007;48.978;18.066;2023-07-08T07:12:35;98192.44;;;26.32;46.92
46768;BME280;69007;48.978;18.066;2023-07-08T07:15:00;98187.25;;;26.18;47.47
46768;BME280;69007;48.978;18.066;2023-07-08T07:17:26;98179.16;;;26.13;47.73
46768;BME280;69007;48.978;18.066;2023-07-08T07:19:53;98180.81;;;26.29;47.76
46768;BME280;69007;48.978;18.066;2023-07-08T07:22:18;98197.91;;;26.28;46.63
46768;BME280;69007;48.978;18.066;2023-07-08T07:24:44;98190.63;;;26.23;46.42
46768;BME280;69007;48.978;18.066;2023-07-08T07:27:10;98180.53;;;26.19;46.32
46768;BME280;69007;48.978;18.066;2023-07-08T07:29:44;98192.78;;;26.02;47.48
46768;BME280;69007;48.978;18.066;2023-07-08T07:32:10;98191.59;;;26.15;47.47
46768;BME280;69007;48.978;18.066;2023-07-08T07:34:36;98193.44;;;26.39;46.71
46768;BME280;69007;48.978;18.066;2023-07-08T07:37:02;98169.72;;;26.17;47.02
46768;BME280;69007;48.978;18.066;2023-07-08T07:39:27;98182.44;;;26.30;47.49
46768;BME280;69007;48.978;18.066;2023-07-08T07:41:54;98186.59;;;26.37;46.95
46768;BME280;69007;48.978;18.066;2023-07-08T07:44:19;98171.84;;;26.52;46.51
46768;BME280;69007;48.978;18.066;2023-07-08T07:46:45;98182.03;;;26.60;45.81
46768;BME280;69007;48.978;18.066;2023-07-08T07:49:12;98182.25;;;26.67;45.32
46768;BME280;69007;48.978;18.066;2023-07-08T07:51:37;98176.66;;;26.67;45.85
46768;BME280;69007;48.978;18.066;2023-07-08T07:54:02;98183.53;;;26.86;44.35
46768;BME280;69007;48.978;18.066;2023-07-08T07:56:28;98182.16;;;26.64;44.91
46768;BME280;69007;48.978;18.066;2023-07-08T07:58:53;98165.53;;;26.39;44.63
46768;BME280;69007;48.978;18.066;2023-07-08T08:01:19;98172.84;;;26.44;44.14
46768;BME280;69007;48.978;18.066;2023-07-08T08:03:45;98186.34;;;26.58;43.35
46768;BME280;69007;48.978;18.066;2023-07-08T08:06:10;98173.88;;;26.67;44.59
46768;BME280;69007;48.978;18.066;2023-07-08T08:08:36;98185.53;;;26.57;43.48
46768;BME280;69007;48.978;18.066;2023-07-08T08:11:01;98177.31;;;26.77;43.16
46768;BME280;69007;48.978;18.066;2023-07-08T08:13:27;98177.13;;;26.70;43.90
46768;BME280;69007;48.978;18.066;2023-07-08T08:15:56;98167.66;;;26.58;43.19
46768;BME280;69007;48.978;18.066;2023-07-08T08:18:22;98187.13;;;26.71;41.64
46768;BME280;69007;48.978;18.066;2023-07-08T08:20:50;98173.34;;;26.94;41.35
46768;BME280;69007;48.978;18.066;2023-07-08T08:23:15;98185.31;;;27.26;40.76
46768;BME280;69007;48.978;18.066;2023-07-08T08:25:41;98181.59;;;27.22;39.74
46768;BME280;69007;48.978;18.066;2023-07-08T08:28:06;98169.56;;;27.02;40.94
46768;BME280;69007;48.978;18.066;2023-07-08T08:30:32;98176.22;;;27.13;41.68
46768;BME280;69007;48.978;18.066;2023-07-08T08:32:58;98162.44;;;27.05;41.70
46768;BME280;69007;48.978;18.066;2023-07-08T08:35:23;98174.78;;;27.03;41.45
46768;BME280;69007;48.978;18.066;2023-07-08T08:37:49;98167.84;;;27.13;41.36
46768;BME280;69007;48.978;18.066;2023-07-08T08:40:17;98161.16;;;27.18;42.20
46768;BME280;69007;48.978;18.066;2023-07-08T08:42:45;98179.56;;;26.87;41.10
46768;BME280;69007;48.978;18.066;2023-07-08T08:45:16;98166.88;;;26.74;42.70
46768;BME280;69007;48.978;18.066;2023-07-08T08:47:48;98171.09;;;26.83;41.42
46768;BME280;69007;48.978;18.066;2023-07-08T08:50:33;98171.63;;;27.21;41.16
46768;BME280;69007;48.978;18.066;2023-07-08T08:53:04;98175.94;;;27.34;40.46
46768;BME280;69007;48.978;18.066;2023-07-08T08:55:31;98159.66;;;27.56;40.94
46768;BME280;69007;48.978;18.066;2023-07-08T09:00:37;98166.91;;;27.25;39.82
46768;BME280;69007;48.978;18.066;2023-07-08T09:03:16;98154.78;;;27.17;39.59
46768;BME280;69007;48.978;18.066;2023-07-08T09:05:46;98157.06;;;27.47;40.15
46768;BME280;69007;48.978;18.066;2023-07-08T09:08:20;98154.06;;;27.56;40.75
46768;BME280;69007;48.978;18.066;2023-07-08T09:13:25;98157.19;;;27.19;39.61
46768;BME280;69007;48.978;18.066;2023-07-08T09:15:59;98160.66;;;26.96;39.32
46768;BME280;69007;48.978;18.066;2023-07-08T09:18:32;98163.81;;;26.79;41.46
46768;BME280;69007;48.978;18.066;2023-07-08T09:21:18;98159.63;;;26.57;41.12
46768;BME280;69007;48.978;18.066;2023-07-08T09:23:47;98151.19;;;26.69;39.94
46768;BME280;69007;48.978;18.066;2023-07-08T09:26:18;98156.59;;;26.94;41.07
46768;BME280;69007;48.978;18.066;2023-07-08T09:28:45;98170.00;;;27.04;39.38
46768;BME280;69007;48.978;18.066;2023-07-08T09:33:46;98163.00;;;26.94;39.65
46768;BME280;69007;48.978;18.066;2023-07-08T09:36:22;98155.22;;;27.03;40.75
46768;BME280;69007;48.978;18.066;2023-07-08T09:38:49;98158.75;;;27.32;38.01
46768;BME280;69007;48.978;18.066;2023-07-08T09:41:29;98150.44;;;27.20;38.37
46768;BME280;69007;48.978;18.066;2023-07-08T09:44:03;98147.56;;;27.16;39.02
46768;BME280;69007;48.978;18.066;2023-07-08T09:46:35;98139.56;;;26.99;39.61
46768;BME280;69007;48.978;18.066;2023-07-08T09:49:09;98154.34;;;26.99;38.42
46768;BME280;69007;48.978;18.066;2023-07-08T09:51:40;98136.59;;;26.92;39.37
46768;BME280;69007;48.978;18.066;2023-07-08T09:54:05;98140.56;;;26.91;39.40
46768;BME280;69007;48.978;18.066;2023-07-08T09:56:31;98147.22;;;27.02;39.67
46768;BME280;69007;48.978;18.066;2023-07-08T09:58:56;98146.84;;;27.03;40.49
46768;BME280;69007;48.978;18.066;2023-07-08T10:01:24;98140.41;;;27.19;40.37
46768;BME280;69007;48.978;18.066;2023-07-08T10:03:51;98142.78;;;27.33;40.94
46768;BME280;69007;48.978;18.066;2023-07-08T10:06:28;98135.75;;;27.23;39.25
46768;BME280;69007;48.978;18.066;2023-07-08T10:08:54;98143.47;;;26.94;40.42
46768;BME280;69007;48.978;18.066;2023-07-08T10:11:41;98123.44;;;26.60;40.20
46768;BME280;69007;48.978;18.066;2023-07-08T10:16:48;98110.91;;;26.54;42.20
46768;BME280;69007;48.978;18.066;2023-07-08T10:19:16;98119.00;;;26.59;40.97
46768;BME280;69007;48.978;18.066;2023-07-08T10:22:06;98116.50;;;26.54;40.52
46768;BME280;69007;48.978;18.066;2023-07-08T10:24:37;98128.19;;;26.44;40.84
46768;BME280;69007;48.978;18.066;2023-07-08T10:33:10;98110.59;;;26.72;40.31
46768;BME280;69007;48.978;18.066;2023-07-08T10:35:25;98094.38;;;26.61;40.79
46768;BME280;69007;48.978;18.066;2023-07-08T10:51:34;98106.97;;;26.87;40.92
46768;BME280;69007;48.978;18.066;2023-07-08T11:05:44;98093.44;;;26.57;39.87
46768;BME280;69007;48.978;18.066;2023-07-08T11:08:27;98078.06;;;26.32;40.44
46768;BME280;69007;48.978;18.066;2023-07-08T11:10:58;98064.81;;;26.44;41.49
46768;BME280;69007;48.978;18.066;2023-07-08T11:13:28;98067.97;;;26.59;42.30
46768;BME280;69007;48.978;18.066;2023-07-08T11:16:00;98099.94;;;26.61;39.94
46768;BME280;69007;48.978;18.066;2023-07-08T11:23:57;98087.94;;;26.29;40.68
46768;BME280;69007;48.978;18.066;2023-07-08T11:28:58;98092.13;;;26.67;41.45
46768;BME280;69007;48.978;18.066;2023-07-08T11:31:25;98078.16;;;26.67;38.75
46768;BME280;69007;48.978;18.066;2023-07-08T11:33:53;98061.78;;;26.65;40.18
46768;BME280;69007;48.978;18.066;2023-07-08T11:36:21;98064.19;;;26.83;38.51
46768;BME280;69007;48.978;18.066;2023-07-08T11:38:53;98063.00;;;26.84;37.94
46768;BME280;69007;48.978;18.066;2023-07-08T11:41:24;98065.09;;;26.87;39.38
46768;BME280;69007;48.978;18.066;2023-07-08T11:44:04;98068.84;;;26.95;41.00
46768;BME280;69007;48.978;18.066;2023-07-08T11:46:32;98055.97;;;26.90;40.88
46768;BME280;69007;48.978;18.066;2023-07-08T11:49:18;98077.97;;;26.76;41.10
46768;BME280;69007;48.978;18.066;2023-07-08T11:51:46;98084.38;;;26.76;40.33
46768;BME280;69007;48.978;18.066;2023-07-08T11:54:30;98061.78;;;26.81;40.09
46768;BME280;69007;48.978;18.066;2023-07-08T11:59:23;98071.44;;;27.03;41.78
46768;BME280;69007;48.978;18.066;2023-07-08T12:02:13;98051.31;;;26.94;40.09
46768;BME280;69007;48.978;18.066;2023-07-08T12:05:29;98034.38;;;26.87;41.32
46768;BME280;69007;48.978;18.066;2023-07-08T12:07:48;98049.66;;;27.09;40.52
46768;BME280;69007;48.978;18.066;2023-07-08T12:10:22;98033.78;;;26.97;39.59
46768;BME280;69007;48.978;18.066;2023-07-08T12:12:49;98043.06;;;27.01;40.46
46768;BME280;69007;48.978;18.066;2023-07-08T12:15:24;98046.59;;;26.98;39.69
46768;BME280;69007;48.978;18.066;2023-07-08T12:17:53;98031.00;;;26.97;40.16
46768;BME280;69007;48.978;18.066;2023-07-08T12:20:27;98033.78;;;26.97;40.55
46768;BME280;69007;48.978;18.066;2023-07-08T12:22:53;98032.50;;;27.11;40.74
46768;BME280;69007;48.978;18.066;2023-07-08T12:25:26;98028.69;;;27.19;40.04
46768;BME280;69007;48.978;18.066;2023-07-08T12:27:54;98033.75;;;27.29;39.75
46768;BME280;69007;48.978;18.066;2023-07-08T12:30:21;98037.47;;;27.37;40.07
46768;BME280;69007;48.978;18.066;2023-07-08T12:32:47;98035.34;;;27.50;40.73
46768;BME280;69007;48.978;18.066;2023-07-08T12:35:23;98018.28;;;27.55;41.41
46768;BME280;69007;48.978;18.066;2023-07-08T12:37:55;98036.44;;;27.65;39.65
46768;BME280;69007;48.978;18.066;2023-07-08T12:40:22;98034.91;;;27.67;39.72
46768;BME280;69007;48.978;18.066;2023-07-08T12:42:48;98024.59;;;27.52;39.74
46768;BME280;69007;48.978;18.066;2023-07-08T12:45:20;98032.47;;;27.46;38.99
46768;BME280;69007;48.978;18.066;2023-07-08T12:47:46;98037.09;;;27.38;39.85
46768;BME280;69007;48.978;18.066;2023-07-08T12:50:13;98035.34;;;27.50;40.02
46768;BME280;69007;48.978;18.066;2023-07-08T12:52:38;98019.84;;;27.52;39.74
46768;BME280;69007;48.978;18.066;2023-07-08T12:55:05;98028.84;;;27.65;39.81
46768;BME280;69007;48.978;18.066;2023-07-08T12:57:31;98028.13;;;27.68;40.06
46768;BME280;69007;48.978;18.066;2023-07-08T12:59:57;98027.38;;;27.71;39.53
46768;BME280;69007;48.978;18.066;2023-07-08T13:02:25;98016.13;;;27.68;38.77
46768;BME280;69007;48.978;18.066;2023-07-08T13:04:56;98017.25;;;27.63;40.13
46768;BME280;69007;48.978;18.066;2023-07-08T13:09:57;98007.56;;;27.57;39.51
46768;BME280;69007;48.978;18.066;2023-07-08T13:12:23;98013.28;;;27.64;39.64
46768;BME280;69007;48.978;18.066;2023-07-08T13:14:51;98010.59;;;27.71;38.98
46768;BME280;69007;48.978;18.066;2023-07-08T13:17:18;98001.34;;;27.67;37.87
46768;BME280;69007;48.978;18.066;2023-07-08T13:19:44;97997.31;;;27.65;37.07
46768;BME280;69007;48.978;18.066;2023-07-08T13:22:19;98001.84;;;27.73;37.14
46768;BME280;69007;48.978;18.066;2023-07-08T13:24:46;98008.06;;;27.63;39.25
46768;BME280;69007;48.978;18.066;2023-07-08T13:27:23;97996.22;;;27.50;38.17
46768;BME280;69007;48.978;18.066;2023-07-08T13:29:53;97995.34;;;27.46;38.61
46768;BME280;69007;48.978;18.066;2023-07-08T13:32:19;98009.88;;;27.55;39.28
46768;BME280;69007;48.978;18.066;2023-07-08T13:34:48;97995.06;;;27.51;37.44
46768;BME280;69007;48.978;18.066;2023-07-08T13:37:14;97989.22;;;27.40;36.97
46768;BME280;69007;48.978;18.066;2023-07-08T13:39:44;97988.88;;;27.42;37.90
46768;BME280;69007;48.978;18.066;2023-07-08T13:42:10;97997.13;;;27.54;37.01
46768;BME280;69007;48.978;18.066;2023-07-08T13:44:42;97986.13;;;27.65;36.76
46768;BME280;69007;48.978;18.066;2023-07-08T13:47:28;97995.22;;;27.81;36.45
46768;BME280;69007;48.978;18.066;2023-07-08T13:50:22;97992.47;;;27.85;36.59
46768;BME280;69007;48.978;18.066;2023-07-08T13:52:55;97995.53;;;27.76;35.70
46768;BME280;69007;48.978;18.066;2023-07-08T13:55:22;97980.91;;;27.63;36.22
46768;BME280;69007;48.978;18.066;2023-07-08T13:58:00;97985.56;;;27.55;36.20